createdAt,value
2018-04-08T00:01:31.072Z,0.00
2018-04-08T00:02:31.004Z,0.00
2018-04-08T00:04:22.776Z,0.00
2018-04-08T00:05:22.700Z,0.00
2018-04-08T00:07:14.459Z,0.00
2018-04-08T00:08:14.391Z,0.00
2018-04-08T00:10:06.156Z,0.00
2018-04-08T00:11:06.087Z,0.00
2018-04-08T00:12:57.860Z,0.00
2018-04-08T00:13:57.802Z,0.00
2018-04-08T00:15:49.587Z,0.00
2018-04-08T00:16:49.511Z,0.00
2018-04-08T00:18:41.259Z,0.00
2018-04-08T00:19:41.197Z,0.00
2018-04-08T00:21:32.976Z,0.00
2018-04-08T00:22:32.897Z,0.00
2018-04-08T00:24:24.682Z,0.00
2018-04-08T00:25:24.607Z,0.00
2018-04-08T00:27:16.383Z,0.00
2018-04-08T00:28:16.299Z,0.00
2018-04-08T00:30:08.074Z,0.00
2018-04-08T00:31:07.996Z,0.00
2018-04-08T00:32:59.774Z,0.00
2018-04-08T00:33:59.712Z,0.00
2018-04-08T00:35:51.467Z,0.00
2018-04-08T00:36:51.402Z,0.00
2018-04-08T00:38:43.188Z,0.00
2018-04-08T00:39:43.117Z,0.00
2018-04-08T00:41:34.874Z,0.00
2018-04-08T00:42:34.795Z,0.00
2018-04-08T00:44:26.578Z,0.00
2018-04-08T00:45:26.499Z,0.00
2018-04-08T00:47:18.275Z,0.00
2018-04-08T00:48:18.201Z,0.00
2018-04-08T00:50:09.965Z,0.00
2018-04-08T00:51:09.900Z,0.00
2018-04-08T00:53:01.645Z,0.00
2018-04-08T00:54:01.585Z,0.00
2018-04-08T00:55:53.385Z,0.00
2018-04-08T00:56:53.306Z,0.00
2018-04-08T00:58:45.082Z,0.00
2018-04-08T00:59:45.024Z,0.00
2018-04-08T01:01:36.838Z,0.00
2018-04-08T01:02:36.767Z,0.00
2018-04-08T01:04:28.555Z,0.00
2018-04-08T01:05:28.490Z,0.00
2018-04-08T01:07:20.265Z,0.00
2018-04-08T01:08:20.190Z,0.00
2018-04-08T01:10:11.988Z,0.00
2018-04-08T01:11:11.890Z,0.00
2018-04-08T01:13:03.666Z,0.00
2018-04-08T01:14:03.594Z,0.00
2018-04-08T01:15:55.366Z,0.00
2018-04-08T01:16:55.303Z,0.00
2018-04-08T01:18:47.080Z,0.00
2018-04-08T01:19:46.992Z,0.00
2018-04-08T01:21:38.763Z,0.00
2018-04-08T01:22:38.683Z,0.00
2018-04-08T01:24:30.424Z,0.00
2018-04-08T01:25:30.370Z,0.00
2018-04-08T01:27:22.143Z,0.00
2018-04-08T01:28:22.064Z,0.00
2018-04-08T01:30:13.815Z,0.00
2018-04-08T01:31:13.751Z,0.00
2018-04-08T01:33:05.516Z,0.00
2018-04-08T01:34:05.440Z,0.00
2018-04-08T01:35:57.220Z,0.00
2018-04-08T01:36:57.144Z,0.00
2018-04-08T01:38:48.909Z,0.00
2018-04-08T01:39:48.825Z,0.00
2018-04-08T01:41:40.596Z,0.00
2018-04-08T01:42:40.521Z,0.00
2018-04-08T01:44:32.281Z,0.00
2018-04-08T01:45:32.226Z,0.00
2018-04-08T01:47:23.985Z,0.00
2018-04-08T01:48:23.909Z,0.00
2018-04-08T01:50:15.687Z,0.00
2018-04-08T01:51:15.634Z,0.00
2018-04-08T01:53:07.423Z,0.00
2018-04-08T01:54:07.347Z,0.00
2018-04-08T01:55:59.150Z,0.00
2018-04-08T01:56:59.077Z,0.00
2018-04-08T01:58:50.839Z,0.00
2018-04-08T01:59:50.785Z,0.00
2018-04-08T02:01:42.531Z,0.00
2018-04-08T02:02:42.457Z,0.00
2018-04-08T02:04:34.227Z,0.00
2018-04-08T02:05:34.162Z,0.00
2018-04-08T02:07:25.933Z,0.00
2018-04-08T02:08:25.856Z,0.00
2018-04-08T02:10:17.731Z,0.00
2018-04-08T02:11:17.545Z,0.00
2018-04-08T02:13:09.302Z,0.00
2018-04-08T02:14:09.228Z,0.00
2018-04-08T02:16:00.982Z,0.00
2018-04-08T02:17:00.920Z,0.00
2018-04-08T02:18:52.758Z,0.00
2018-04-08T02:19:52.635Z,0.00
2018-04-08T02:21:44.404Z,0.00
2018-04-08T02:22:44.330Z,0.00
2018-04-08T02:24:36.097Z,0.00
2018-04-08T02:25:36.031Z,0.00
2018-04-08T02:27:27.807Z,0.00
2018-04-08T02:28:27.734Z,0.00
2018-04-08T02:30:19.488Z,0.00
2018-04-08T02:31:19.423Z,0.00
2018-04-08T02:33:11.200Z,0.00
2018-04-08T02:34:11.130Z,0.00
2018-04-08T02:36:02.877Z,0.00
2018-04-08T02:37:02.815Z,0.00
2018-04-08T02:38:54.579Z,0.00
2018-04-08T02:39:54.504Z,0.00
2018-04-08T02:41:46.298Z,0.00
2018-04-08T02:42:46.216Z,0.00
2018-04-08T02:44:37.970Z,0.00
2018-04-08T02:45:37.906Z,0.00
2018-04-08T02:47:29.691Z,0.00
2018-04-08T02:48:29.613Z,0.00
2018-04-08T02:50:21.366Z,0.00
2018-04-08T02:51:21.304Z,0.00
2018-04-08T02:53:13.122Z,0.00
2018-04-08T02:54:13.053Z,0.00
2018-04-08T02:56:04.805Z,0.00
2018-04-08T02:57:04.736Z,0.00
2018-04-08T02:58:56.569Z,0.00
2018-04-08T02:59:56.495Z,0.00
2018-04-08T03:01:48.250Z,0.00
2018-04-08T03:02:48.184Z,0.00
2018-04-08T03:04:39.952Z,0.00
2018-04-08T03:05:39.881Z,0.00
2018-04-08T03:07:31.698Z,0.00
2018-04-08T03:08:31.628Z,0.00
2018-04-08T03:10:23.435Z,0.00
2018-04-08T03:11:23.371Z,0.00
2018-04-08T03:13:15.171Z,0.00
2018-04-08T03:14:15.091Z,0.00
2018-04-08T03:16:06.838Z,0.00
2018-04-08T03:17:06.775Z,0.00
2018-04-08T03:18:58.548Z,0.00
2018-04-08T03:19:58.501Z,0.00
2018-04-08T03:21:50.223Z,0.00
2018-04-08T03:22:50.159Z,0.00
2018-04-08T03:24:41.929Z,0.00
2018-04-08T03:25:41.862Z,0.00
2018-04-08T03:27:33.604Z,0.00
2018-04-08T03:28:33.541Z,0.00
2018-04-08T03:30:25.322Z,0.00
2018-04-08T03:31:25.252Z,0.00
2018-04-08T03:33:17.048Z,0.00
2018-04-08T03:34:16.969Z,0.00
2018-04-08T03:36:08.710Z,0.00
2018-04-08T03:37:08.647Z,0.00
2018-04-08T03:39:00.422Z,0.00
2018-04-08T03:40:00.342Z,0.00
2018-04-08T03:41:52.096Z,0.00
2018-04-08T03:42:52.035Z,0.00
2018-04-08T03:44:43.795Z,0.00
2018-04-08T03:45:43.725Z,0.00
2018-04-08T03:47:35.476Z,0.00
2018-04-08T03:48:35.413Z,0.00
2018-04-08T03:50:27.182Z,0.00
2018-04-08T03:51:27.110Z,0.00
2018-04-08T03:53:18.875Z,0.00
2018-04-08T03:54:18.807Z,4.00
2018-04-08T03:56:10.568Z,0.00
2018-04-08T03:57:10.495Z,4.00
2018-04-08T03:59:02.262Z,4.00
2018-04-08T04:00:02.191Z,8.00
2018-04-08T04:01:53.975Z,4.00
2018-04-08T04:02:53.888Z,8.00
2018-04-08T04:04:45.670Z,8.00
2018-04-08T04:05:45.574Z,12.00
2018-04-08T04:07:37.328Z,16.00
2018-04-08T04:08:37.273Z,20.00
2018-04-08T04:10:29.057Z,28.00
2018-04-08T04:11:28.975Z,28.00
2018-04-08T04:13:20.732Z,36.00
2018-04-08T04:14:20.670Z,44.00
2018-04-08T04:16:12.432Z,56.00
2018-04-08T04:17:12.356Z,64.00
2018-04-08T04:19:04.122Z,76.00
2018-04-08T04:20:04.050Z,88.00
2018-04-08T04:21:55.801Z,104.00
2018-04-08T04:22:55.743Z,116.00
2018-04-08T04:24:47.520Z,136.00
2018-04-08T04:25:47.462Z,148.00
2018-04-08T04:27:39.202Z,176.00
2018-04-08T04:28:39.161Z,188.00
2018-04-08T04:30:30.915Z,220.00
2018-04-08T04:31:30.836Z,236.00
2018-04-08T04:33:22.602Z,272.00
2018-04-08T04:34:22.535Z,296.00
2018-04-08T04:36:14.322Z,332.00
2018-04-08T04:37:14.244Z,352.00
2018-04-08T04:39:06.149Z,400.00
2018-04-08T04:40:06.080Z,424.00
2018-04-08T04:41:57.857Z,472.00
2018-04-08T04:42:57.818Z,496.00
2018-04-08T04:44:49.539Z,548.00
2018-04-08T04:45:49.460Z,576.00
2018-04-08T04:47:41.244Z,636.00
2018-04-08T04:48:41.181Z,668.00
2018-04-08T04:50:32.948Z,724.00
2018-04-08T04:51:32.867Z,760.00
2018-04-08T04:53:24.619Z,828.00
2018-04-08T04:54:24.554Z,860.00
2018-04-08T04:56:16.323Z,928.00
2018-04-08T04:57:16.251Z,960.00
2018-04-08T04:59:08.024Z,1024.00
2018-04-08T05:00:07.959Z,1060.00
2018-04-08T05:01:59.867Z,1124.00
2018-04-08T05:02:59.790Z,1176.00
2018-04-08T05:04:51.569Z,1296.00
2018-04-08T05:05:51.581Z,1284.00
2018-04-08T05:07:43.480Z,1356.00
2018-04-08T05:08:43.222Z,1392.00
2018-04-08T05:10:34.981Z,1484.00
2018-04-08T05:11:34.944Z,1504.00
2018-04-08T05:13:26.654Z,1604.00
2018-04-08T05:14:26.667Z,1652.00
2018-04-08T05:16:18.383Z,1752.00
2018-04-08T05:17:18.297Z,1816.00
2018-04-08T05:19:10.057Z,1896.00
2018-04-08T05:20:09.997Z,1924.00
2018-04-08T05:22:01.841Z,2040.00
2018-04-08T05:23:01.698Z,2124.00
2018-04-08T05:24:53.467Z,2248.00
2018-04-08T05:25:53.401Z,2340.00
2018-04-08T05:27:45.327Z,2520.00
2018-04-08T05:28:45.139Z,2692.00
2018-04-08T05:30:36.971Z,2836.00
2018-04-08T05:31:36.836Z,2852.00
2018-04-08T05:33:28.585Z,3056.00
2018-04-08T05:34:28.532Z,3124.00
2018-04-08T05:36:20.290Z,3156.00
2018-04-08T05:37:20.211Z,3224.00
2018-04-08T05:39:11.990Z,3408.00
2018-04-08T05:40:11.931Z,3624.00
2018-04-08T05:42:03.710Z,4048.00
2018-04-08T05:43:03.677Z,4220.00
2018-04-08T05:44:55.390Z,4560.00
2018-04-08T05:45:55.387Z,5044.00
2018-04-08T05:47:47.151Z,5296.00
2018-04-08T05:48:47.047Z,5296.00
2018-04-08T05:50:38.843Z,5420.00
2018-04-08T05:51:38.747Z,5460.00
2018-04-08T05:53:30.668Z,5504.00
2018-04-08T05:54:30.534Z,5820.00
2018-04-08T05:56:22.571Z,5916.00
2018-04-08T05:57:22.341Z,6372.00
2018-04-08T05:59:14.122Z,7260.00
2018-04-08T06:00:14.052Z,8028.00
2018-04-08T06:02:05.850Z,10480.00
2018-04-08T06:03:05.764Z,10776.00
2018-04-08T06:04:57.522Z,10640.00
2018-04-08T06:05:57.446Z,9968.00
2018-04-08T06:07:49.335Z,10264.00
2018-04-08T06:08:49.248Z,9540.00
2018-04-08T06:10:41.645Z,11072.00
2018-04-08T06:11:40.969Z,11196.00
2018-04-08T06:13:32.773Z,10756.00
2018-04-08T06:14:32.686Z,12304.00
2018-04-08T06:16:24.487Z,13104.00
2018-04-08T06:17:24.401Z,15456.00
2018-04-08T06:19:16.212Z,17504.00
2018-04-08T06:20:16.146Z,18816.00
2018-04-08T06:22:07.910Z,19008.00
2018-04-08T06:23:07.841Z,18592.00
2018-04-08T06:24:59.627Z,21984.00
2018-04-08T06:25:59.546Z,23232.00
2018-04-08T06:27:51.384Z,23616.00
2018-04-08T06:28:51.298Z,25568.00
2018-04-08T06:30:43.406Z,29408.00
2018-04-08T06:31:43.316Z,29952.00
2018-04-08T06:33:35.225Z,30944.00
2018-04-08T06:34:35.098Z,28832.00
2018-04-08T06:36:26.869Z,29152.00
2018-04-08T06:37:26.772Z,29216.00
2018-04-08T06:39:18.549Z,28992.00
2018-04-08T06:40:18.470Z,28448.00
2018-04-08T06:42:10.353Z,28800.00
2018-04-08T06:43:10.305Z,28800.00
2018-04-08T06:45:02.087Z,29664.00
2018-04-08T06:46:02.004Z,27904.00
2018-04-08T06:47:53.830Z,28992.00
2018-04-08T06:48:53.763Z,29888.00
2018-04-08T06:50:45.647Z,31040.00
2018-04-08T06:51:45.561Z,28416.00
2018-04-08T06:53:37.371Z,28160.00
2018-04-08T06:54:37.304Z,30336.00
2018-04-08T06:56:29.069Z,35680.00
2018-04-08T06:57:29.021Z,30496.00
2018-04-08T06:59:20.814Z,25920.00
2018-04-08T07:00:20.738Z,28416.00
2018-04-08T07:02:12.547Z,32576.00
2018-04-08T07:03:12.463Z,34208.00
2018-04-08T07:05:04.256Z,26976.00
2018-04-08T07:06:04.180Z,27712.00
2018-04-08T07:07:55.979Z,28416.00
2018-04-08T07:08:55.890Z,28576.00
2018-04-08T07:10:47.655Z,17984.00
2018-04-08T07:11:47.602Z,16768.00
2018-04-08T07:13:39.448Z,17088.00
2018-04-08T07:14:39.356Z,20928.00
2018-04-08T07:16:31.145Z,28224.00
2018-04-08T07:17:31.079Z,27456.00
2018-04-08T07:19:22.891Z,33248.00
2018-04-08T07:20:22.823Z,31040.00
2018-04-08T07:22:14.611Z,26848.00
2018-04-08T07:23:14.548Z,28448.00
2018-04-08T07:25:06.331Z,29408.00
2018-04-08T07:26:06.262Z,30368.00
2018-04-08T07:27:58.153Z,30560.00
2018-04-08T07:28:58.034Z,31264.00
2018-04-08T07:30:49.864Z,31680.00
2018-04-08T07:31:49.812Z,31904.00
2018-04-08T07:33:41.594Z,30208.00
2018-04-08T07:34:41.537Z,31936.00
2018-04-08T07:36:33.334Z,34112.00
2018-04-08T07:37:33.263Z,37696.00
2018-04-08T07:39:25.065Z,34912.00
2018-04-08T07:40:24.995Z,32704.00
2018-04-08T07:42:16.761Z,34528.00
2018-04-08T07:43:16.745Z,35680.00
2018-04-08T07:45:08.673Z,38336.00
2018-04-08T07:46:08.638Z,36064.00
2018-04-08T07:48:00.386Z,38624.00
2018-04-08T07:49:00.330Z,40032.00
2018-04-08T07:50:52.129Z,40064.00
2018-04-08T07:51:52.077Z,45088.00
2018-04-08T07:53:43.868Z,43296.00
2018-04-08T07:54:43.796Z,41792.00
2018-04-08T07:56:35.631Z,55680.00
2018-04-08T07:57:35.547Z,60608.00
2018-04-08T07:59:27.366Z,67616.00
2018-04-08T08:00:27.273Z,74176.00
2018-04-08T08:02:19.220Z,51296.00
2018-04-08T08:03:19.002Z,39360.00
2018-04-08T08:05:10.810Z,37056.00
2018-04-08T08:06:10.734Z,32736.00
2018-04-08T08:08:02.511Z,30816.00
2018-04-08T08:09:02.469Z,30272.00
2018-04-08T08:10:54.260Z,30112.00
2018-04-08T08:11:54.189Z,30112.00
2018-04-08T08:13:46.017Z,26016.00
2018-04-08T08:14:45.947Z,29728.00
2018-04-08T08:16:37.737Z,29312.00
2018-04-08T08:17:37.718Z,31616.00
2018-04-08T08:19:29.484Z,29632.00
2018-04-08T08:20:29.440Z,29728.00
2018-04-08T08:22:21.186Z,31232.00
2018-04-08T08:23:21.141Z,29984.00
2018-04-08T08:25:12.924Z,29824.00
2018-04-08T08:26:12.860Z,29504.00
2018-04-08T08:28:04.979Z,30272.00
2018-04-08T08:29:04.843Z,30016.00
2018-04-08T08:30:56.646Z,30272.00
2018-04-08T08:31:56.605Z,30048.00
2018-04-08T08:33:48.428Z,30784.00
2018-04-08T08:34:48.391Z,30848.00
2018-04-08T08:36:40.171Z,30976.00
2018-04-08T08:37:40.088Z,30656.00
2018-04-08T08:39:31.897Z,31456.00
2018-04-08T08:40:31.827Z,31936.00
2018-04-08T08:42:23.623Z,31392.00
2018-04-08T08:43:23.568Z,30848.00
2018-04-08T08:45:15.390Z,30720.00
2018-04-08T08:46:15.316Z,30912.00
2018-04-08T08:48:07.448Z,30272.00
2018-04-08T08:49:07.308Z,31168.00
2018-04-08T08:50:59.059Z,30944.00
2018-04-08T08:51:58.977Z,30272.00
2018-04-08T08:53:50.808Z,31232.00
2018-04-08T08:54:50.756Z,30624.00
2018-04-08T08:56:42.521Z,31008.00
2018-04-08T08:57:42.463Z,32512.00
2018-04-08T08:59:34.272Z,47360.00
2018-04-08T09:00:34.214Z,57312.00
2018-04-08T09:02:26.108Z,66112.00
2018-04-08T09:03:26.060Z,66176.00
2018-04-08T09:05:17.882Z,65472.00
2018-04-08T09:06:17.766Z,64608.00
2018-04-08T09:08:09.583Z,65312.00
2018-04-08T09:09:09.540Z,66112.00
2018-04-08T09:11:01.342Z,68992.00
2018-04-08T09:12:01.282Z,72288.00
2018-04-08T09:13:53.082Z,71744.00
2018-04-08T09:14:53.028Z,70656.00
2018-04-08T09:16:44.863Z,73216.00
2018-04-08T09:17:44.777Z,71808.00
2018-04-08T09:19:36.584Z,71264.00
2018-04-08T09:20:36.521Z,72832.00
2018-04-08T09:22:28.308Z,69216.00
2018-04-08T09:23:28.260Z,94368.00
2018-04-08T09:25:20.082Z,75072.00
2018-04-08T09:26:20.024Z,76320.00
2018-04-08T09:28:11.929Z,75296.00
2018-04-08T09:29:11.790Z,75584.00
2018-04-08T09:31:03.695Z,93184.00
2018-04-08T09:32:03.664Z,75232.00
2018-04-08T09:33:55.388Z,78976.00
2018-04-08T09:34:55.344Z,78496.00
2018-04-08T09:36:47.204Z,78912.00
2018-04-08T09:37:47.171Z,74240.00
2018-04-08T09:39:38.911Z,80320.00
2018-04-08T09:40:38.880Z,76224.00
2018-04-08T09:42:30.642Z,74784.00
2018-04-08T09:43:30.597Z,80736.00
2018-04-08T09:45:22.454Z,79456.00
2018-04-08T09:46:22.364Z,80192.00
2018-04-08T09:48:14.188Z,84320.00
2018-04-08T09:49:14.117Z,90176.00
2018-04-08T09:51:05.916Z,69760.00
2018-04-08T09:52:05.857Z,64448.00
2018-04-08T09:53:57.721Z,84224.00
2018-04-08T09:54:57.688Z,82528.00
2018-04-08T09:56:49.486Z,87936.00
2018-04-08T09:57:49.473Z,71648.00
2018-04-08T09:59:41.284Z,80384.00
2018-04-08T10:00:41.355Z,79648.00
2018-04-08T10:02:33.096Z,84512.00
2018-04-08T10:03:32.952Z,83264.00
2018-04-08T10:05:24.776Z,86592.00
2018-04-08T10:06:24.700Z,81568.00
2018-04-08T10:08:16.533Z,83392.00
2018-04-08T10:09:16.460Z,87328.00
2018-04-08T10:11:08.297Z,90496.00
2018-04-08T10:12:08.283Z,108992.00
2018-04-08T10:14:00.063Z,90400.00
2018-04-08T10:15:00.055Z,89184.00
2018-04-08T10:16:51.835Z,72928.00
2018-04-08T10:17:51.735Z,63104.00
2018-04-08T10:19:43.578Z,73248.00
2018-04-08T10:20:43.481Z,59616.00
2018-04-08T10:22:35.294Z,77664.00
2018-04-08T10:23:35.235Z,40800.00
2018-04-08T10:25:27.074Z,91040.00
2018-04-08T10:26:26.997Z,89408.00
2018-04-08T10:28:18.819Z,85216.00
2018-04-08T10:29:18.750Z,83552.00
2018-04-08T10:31:10.563Z,82080.00
2018-04-08T10:32:10.482Z,3392.00
2018-04-08T10:34:02.308Z,78976.00
2018-04-08T10:35:02.275Z,77696.00
2018-04-08T10:36:54.099Z,79552.00
2018-04-08T10:37:54.111Z,77152.00
2018-04-08T10:39:45.876Z,76736.00
2018-04-08T10:40:45.767Z,75744.00
2018-04-08T10:42:37.575Z,73024.00
2018-04-08T10:43:37.526Z,75424.00
2018-04-08T10:45:29.502Z,80000.00
2018-04-08T10:46:29.358Z,80000.00
2018-04-08T10:48:21.141Z,80000.00
2018-04-08T10:49:21.103Z,78432.00
2018-04-08T10:51:12.893Z,76192.00
2018-04-08T10:52:12.909Z,76384.00
2018-04-08T10:54:04.685Z,76064.00
2018-04-08T10:55:04.578Z,76000.00
2018-04-08T10:56:56.451Z,74560.00
2018-04-08T10:57:56.384Z,70624.00
2018-04-08T10:59:48.283Z,70432.00
2018-04-08T11:00:48.160Z,67584.00
2018-04-08T11:02:39.935Z,70240.00
2018-04-08T11:03:39.866Z,70144.00
2018-04-08T11:05:31.682Z,68832.00
2018-04-08T11:06:31.605Z,69824.00
2018-04-08T11:08:23.418Z,64416.00
2018-04-08T11:09:23.341Z,63840.00
2018-04-08T11:11:15.155Z,37696.00
2018-04-08T11:12:15.129Z,10148.00
2018-04-08T11:14:06.885Z,8068.00
2018-04-08T11:15:06.849Z,8840.00
2018-04-08T11:16:58.710Z,7068.00
2018-04-08T11:17:58.592Z,6904.00
2018-04-08T11:19:50.386Z,6920.00
2018-04-08T11:20:50.324Z,6816.00
2018-04-08T11:22:42.144Z,6440.00
2018-04-08T11:23:42.070Z,6700.00
2018-04-08T11:25:33.910Z,6216.00
2018-04-08T11:26:33.833Z,6944.00
2018-04-08T11:28:25.695Z,6224.00
2018-04-08T11:29:25.586Z,5988.00
2018-04-08T11:31:17.404Z,6020.00
2018-04-08T11:32:17.347Z,5892.00
2018-04-08T11:34:09.126Z,5980.00
2018-04-08T11:35:09.116Z,5840.00
2018-04-08T11:37:00.862Z,5764.00
2018-04-08T11:38:00.809Z,5688.00
2018-04-08T11:39:52.647Z,6276.00
2018-04-08T11:40:52.564Z,5832.00
2018-04-08T11:42:44.350Z,5748.00
2018-04-08T11:43:44.296Z,5384.00
2018-04-08T11:45:36.105Z,5220.00
2018-04-08T11:46:36.099Z,5032.00
2018-04-08T11:48:27.811Z,5100.00
2018-04-08T11:49:27.747Z,5336.00
2018-04-08T11:51:19.530Z,5140.00
2018-04-08T11:52:19.467Z,5268.00
2018-04-08T11:54:11.241Z,5364.00
2018-04-08T11:55:11.182Z,5096.00
2018-04-08T11:57:03.000Z,5384.00
2018-04-08T11:58:02.884Z,5276.00
2018-04-08T11:59:54.713Z,4932.00
2018-04-08T12:00:54.630Z,5304.00
2018-04-08T12:02:46.548Z,5368.00
2018-04-08T12:03:46.648Z,5016.00
2018-04-08T12:05:38.260Z,5072.00
2018-04-08T12:06:38.221Z,5300.00
2018-04-08T12:08:30.145Z,5256.00
2018-04-08T12:09:30.100Z,5236.00
2018-04-08T12:11:21.830Z,4816.00
2018-04-08T12:12:21.744Z,5032.00
2018-04-08T12:14:13.545Z,4516.00
2018-04-08T12:15:13.468Z,4744.00
2018-04-08T12:17:05.388Z,5112.00
2018-04-08T12:18:05.266Z,4548.00
2018-04-08T12:19:57.036Z,4532.00
2018-04-08T12:20:56.978Z,4360.00
2018-04-08T12:22:48.853Z,4428.00
2018-04-08T12:23:48.758Z,4416.00
2018-04-08T12:25:40.551Z,4480.00
2018-04-08T12:26:40.464Z,4552.00
2018-04-08T12:28:32.425Z,4324.00
2018-04-08T12:29:32.301Z,4320.00
2018-04-08T12:31:24.181Z,4384.00
2018-04-08T12:32:24.036Z,4248.00
2018-04-08T12:34:15.866Z,4572.00
2018-04-08T12:35:15.798Z,4120.00
2018-04-08T12:37:07.706Z,4232.00
2018-04-08T12:38:07.586Z,4248.00
2018-04-08T12:39:59.577Z,4324.00
2018-04-08T12:40:59.334Z,4192.00
2018-04-08T12:42:51.117Z,4136.00
2018-04-08T12:43:51.052Z,4492.00
2018-04-08T12:45:43.003Z,3980.00
2018-04-08T12:46:42.971Z,4356.00
2018-04-08T12:48:34.721Z,4304.00
2018-04-08T12:49:34.669Z,4260.00
2018-04-08T12:51:26.585Z,4424.00
2018-04-08T12:52:26.525Z,3968.00
2018-04-08T12:54:18.343Z,4324.00
2018-04-08T12:55:18.323Z,3884.00
2018-04-08T12:57:10.044Z,4336.00
2018-04-08T12:58:09.964Z,3964.00
2018-04-08T13:00:01.766Z,3932.00
2018-04-08T13:01:01.767Z,3924.00
2018-04-08T13:02:53.614Z,4236.00
2018-04-08T13:03:53.437Z,4004.00
2018-04-08T13:05:45.245Z,4000.00
2018-04-08T13:06:45.182Z,3892.00
2018-04-08T13:08:37.028Z,4156.00
2018-04-08T13:09:36.913Z,4020.00
2018-04-08T13:11:28.827Z,3784.00
2018-04-08T13:12:28.728Z,4272.00
2018-04-08T13:14:20.524Z,3972.00
2018-04-08T13:15:20.453Z,3916.00
2018-04-08T13:17:12.254Z,4024.00
2018-04-08T13:18:12.178Z,3796.00
2018-04-08T13:20:03.978Z,3704.00
2018-04-08T13:21:03.947Z,3768.00
2018-04-08T13:22:55.739Z,3740.00
2018-04-08T13:23:55.681Z,3652.00
2018-04-08T13:25:47.549Z,3976.00
2018-04-08T13:26:47.421Z,3608.00
2018-04-08T13:28:39.227Z,3784.00
2018-04-08T13:29:39.132Z,3848.00
2018-04-08T13:31:30.909Z,3656.00
2018-04-08T13:32:30.880Z,3880.00
2018-04-08T13:34:22.677Z,3328.00
2018-04-08T13:35:22.600Z,3624.00
2018-04-08T13:37:14.426Z,3652.00
2018-04-08T13:38:14.321Z,3676.00
2018-04-08T13:40:06.093Z,3848.00
2018-04-08T13:41:06.025Z,3760.00
2018-04-08T13:42:57.880Z,3380.00
2018-04-08T13:43:57.745Z,3460.00
2018-04-08T13:45:49.566Z,3536.00
2018-04-08T13:46:49.475Z,3480.00
2018-04-08T13:48:41.298Z,3556.00
2018-04-08T13:49:41.227Z,3520.00
2018-04-08T13:51:32.973Z,3452.00
2018-04-08T13:52:32.904Z,3620.00
2018-04-08T13:54:24.813Z,3524.00
2018-04-08T13:55:24.789Z,3500.00
2018-04-08T13:57:16.541Z,3512.00
2018-04-08T13:58:16.426Z,3520.00
2018-04-08T14:00:08.192Z,3468.00
2018-04-08T14:01:08.145Z,3500.00
2018-04-08T14:02:59.902Z,3468.00
2018-04-08T14:03:59.877Z,3408.00
2018-04-08T14:05:51.610Z,3364.00
2018-04-08T14:06:51.665Z,3472.00
2018-04-08T14:08:43.385Z,3412.00
2018-04-08T14:09:43.288Z,3528.00
2018-04-08T14:11:35.230Z,3524.00
2018-04-08T14:12:35.009Z,3456.00
2018-04-08T14:14:26.891Z,3468.00
2018-04-08T14:15:26.739Z,3420.00
2018-04-08T14:17:18.572Z,3404.00
2018-04-08T14:18:18.482Z,3356.00
2018-04-08T14:20:10.430Z,3340.00
2018-04-08T14:21:10.264Z,3456.00
2018-04-08T14:23:02.097Z,3420.00
2018-04-08T14:24:01.980Z,3392.00
2018-04-08T14:25:53.788Z,3380.00
2018-04-08T14:26:53.686Z,3284.00
2018-04-08T14:28:45.499Z,3360.00
2018-04-08T14:29:45.398Z,3380.00
2018-04-08T14:31:37.263Z,3288.00
2018-04-08T14:32:37.091Z,3380.00
2018-04-08T14:34:28.904Z,3316.00
2018-04-08T14:35:28.833Z,3296.00
2018-04-08T14:37:20.700Z,3280.00
2018-04-08T14:38:20.641Z,3284.00
2018-04-08T14:40:12.504Z,3296.00
2018-04-08T14:41:12.379Z,3304.00
2018-04-08T14:43:04.185Z,3256.00
2018-04-08T14:44:04.150Z,3188.00
2018-04-08T14:45:55.903Z,3236.00
2018-04-08T14:46:55.832Z,3248.00
2018-04-08T14:48:47.670Z,2940.00
2018-04-08T14:49:47.755Z,3020.00
2018-04-08T14:51:39.484Z,3112.00
2018-04-08T14:52:39.337Z,3128.00
2018-04-08T14:54:31.250Z,3124.00
2018-04-08T14:55:31.168Z,3064.00
2018-04-08T14:57:23.037Z,3036.00
2018-04-08T14:58:22.879Z,2968.00
2018-04-08T15:00:14.746Z,3024.00
2018-04-08T15:01:14.605Z,3028.00
2018-04-08T15:03:06.443Z,2996.00
2018-04-08T15:04:06.405Z,2980.00
2018-04-08T15:05:58.243Z,2980.00
2018-04-08T15:06:58.142Z,3000.00
2018-04-08T15:08:49.995Z,2924.00
2018-04-08T15:09:49.921Z,2916.00
2018-04-08T15:11:41.800Z,2932.00
2018-04-08T15:12:41.652Z,2916.00
2018-04-08T15:14:33.467Z,2916.00
2018-04-08T15:15:33.429Z,2884.00
2018-04-08T15:17:25.192Z,2860.00
2018-04-08T15:18:25.150Z,2852.00
2018-04-08T15:20:16.903Z,2800.00
2018-04-08T15:21:16.835Z,2808.00
2018-04-08T15:23:08.688Z,2788.00
2018-04-08T15:24:08.625Z,2772.00
2018-04-08T15:26:00.400Z,2744.00
2018-04-08T15:27:00.299Z,2736.00
2018-04-08T15:28:52.233Z,2708.00
2018-04-08T15:29:52.064Z,2700.00
2018-04-08T15:31:43.823Z,2680.00
2018-04-08T15:32:43.759Z,2652.00
2018-04-08T15:34:35.585Z,2628.00
2018-04-08T15:35:35.480Z,2608.00
2018-04-08T15:37:27.269Z,2576.00
2018-04-08T15:38:27.243Z,2568.00
2018-04-08T15:40:19.048Z,2540.00
2018-04-08T15:41:18.957Z,2520.00
2018-04-08T15:43:10.742Z,2496.00
2018-04-08T15:44:10.670Z,2476.00
2018-04-08T15:46:02.519Z,2444.00
2018-04-08T15:47:02.412Z,2420.00
2018-04-08T15:48:54.170Z,2372.00
2018-04-08T15:49:54.104Z,2364.00
2018-04-08T15:51:45.887Z,2324.00
2018-04-08T15:52:45.841Z,2136.00
2018-04-08T15:54:37.650Z,2048.00
2018-04-08T15:55:37.576Z,2172.00
2018-04-08T15:57:29.355Z,2080.00
2018-04-08T15:58:29.293Z,2152.00
2018-04-08T16:00:21.100Z,2124.00
2018-04-08T16:01:21.068Z,2108.00
2018-04-08T16:03:12.857Z,2072.00
2018-04-08T16:04:12.756Z,2060.00
2018-04-08T16:06:04.630Z,2036.00
2018-04-08T16:07:04.525Z,2024.00
2018-04-08T16:08:56.301Z,1988.00
2018-04-08T16:09:56.285Z,1968.00
2018-04-08T16:11:48.073Z,1948.00
2018-04-08T16:12:47.966Z,1932.00
2018-04-08T16:14:39.818Z,1908.00
2018-04-08T16:15:39.773Z,1892.00
2018-04-08T16:17:31.491Z,1860.00
2018-04-08T16:18:31.414Z,1840.00
2018-04-08T16:20:23.252Z,1796.00
2018-04-08T16:21:23.141Z,1752.00
2018-04-08T16:23:14.956Z,1756.00
2018-04-08T16:24:14.913Z,1740.00
2018-04-08T16:26:06.698Z,1704.00
2018-04-08T16:27:06.613Z,1680.00
2018-04-08T16:28:58.400Z,1656.00
2018-04-08T16:29:58.326Z,1636.00
2018-04-08T16:31:50.139Z,1608.00
2018-04-08T16:32:50.056Z,1588.00
2018-04-08T16:34:41.860Z,1556.00
2018-04-08T16:35:41.795Z,1540.00
2018-04-08T16:37:33.622Z,1512.00
2018-04-08T16:38:33.530Z,1496.00
2018-04-08T16:40:25.322Z,1456.00
2018-04-08T16:41:25.251Z,1432.00
2018-04-08T16:43:17.067Z,1404.00
2018-04-08T16:44:17.005Z,1388.00
2018-04-08T16:46:08.851Z,1348.00
2018-04-08T16:47:08.781Z,1328.00
2018-04-08T16:49:00.596Z,1288.00
2018-04-08T16:50:00.572Z,1272.00
2018-04-08T16:51:52.329Z,1228.00
2018-04-08T16:52:52.260Z,1208.00
2018-04-08T16:54:44.093Z,1176.00
2018-04-08T16:55:44.021Z,1160.00
2018-04-08T16:57:35.870Z,1124.00
2018-04-08T16:58:35.764Z,1112.00
2018-04-08T17:00:27.575Z,1072.00
2018-04-08T17:01:27.510Z,1044.00
2018-04-08T17:03:19.298Z,1004.00
2018-04-08T17:04:19.218Z,984.00
2018-04-08T17:06:10.999Z,940.00
2018-04-08T17:07:10.947Z,916.00
2018-04-08T17:09:02.699Z,844.00
2018-04-08T17:10:02.679Z,844.00
2018-04-08T17:11:54.436Z,812.00
2018-04-08T17:12:54.377Z,784.00
2018-04-08T17:14:46.166Z,744.00
2018-04-08T17:15:46.099Z,720.00
2018-04-08T17:17:37.994Z,680.00
2018-04-08T17:18:37.852Z,660.00
2018-04-08T17:20:29.635Z,616.00
2018-04-08T17:21:29.568Z,596.00
2018-04-08T17:23:21.415Z,560.00
2018-04-08T17:24:21.318Z,536.00
2018-04-08T17:26:13.116Z,472.00
2018-04-08T17:27:13.050Z,480.00
2018-04-08T17:29:04.869Z,444.00
2018-04-08T17:30:04.775Z,424.00
2018-04-08T17:31:56.578Z,388.00
2018-04-08T17:32:56.510Z,372.00
2018-04-08T17:34:48.294Z,340.00